sensor_id;sensor_type;location;lat;lon;timestamp;pressure;altitude;pressure_sealevel;temperature;humidity
48555;BME280;34336;48.270;16.716;2023-04-07T00:00:29;109325.25;;;18.16;50.09
48555;BME280;34336;48.270;16.716;2023-04-07T00:02:56;109325.25;;;18.16;50.01
48555;BME280;34336;48.270;16.716;2023-04-07T00:05:23;109325.25;;;18.16;49.66
48555;BME280;34336;48.270;16.716;2023-04-07T00:07:49;109325.25;;;18.16;49.51
48555;BME280;34336;48.270;16.716;2023-04-07T00:10:23;109325.25;;;18.16;49.44
48555;BME280;34336;48.270;16.716;2023-04-07T00:12:50;109325.25;;;18.16;49.10
48555;BME280;34336;48.270;16.716;2023-04-07T00:15:16;109325.25;;;18.16;49.37
48555;BME280;34336;48.270;16.716;2023-04-07T00:17:43;109325.25;;;18.16;50.05
48555;BME280;34336;48.270;16.716;2023-04-07T00:20:11;109325.25;;;18.16;49.66
48555;BME280;34336;48.270;16.716;2023-04-07T00:22:37;109325.25;;;18.16;49.96
48555;BME280;34336;48.270;16.716;2023-04-07T00:25:04;109325.25;;;18.16;50.22
48555;BME280;34336;48.270;16.716;2023-04-07T00:27:31;109325.25;;;18.16;50.12
48555;BME280;34336;48.270;16.716;2023-04-07T00:29:57;109325.25;;;18.16;50.28
48555;BME280;34336;48.270;16.716;2023-04-07T00:32:24;109325.25;;;18.16;50.34
48555;BME280;34336;48.270;16.716;2023-04-07T00:34:51;109325.25;;;18.16;50.04
48555;BME280;34336;48.270;16.716;2023-04-07T00:37:17;109325.25;;;18.16;49.86
48555;BME280;34336;48.270;16.716;2023-04-07T00:39:44;109325.25;;;18.16;49.72
48555;BME280;34336;48.270;16.716;2023-04-07T00:42:12;109325.25;;;18.16;49.27
48555;BME280;34336;48.270;16.716;2023-04-07T00:44:39;109325.25;;;18.16;48.61
48555;BME280;34336;48.270;16.716;2023-04-07T00:47:05;109325.25;;;18.16;48.40
48555;BME280;34336;48.270;16.716;2023-04-07T00:49:32;109325.25;;;18.16;47.95
48555;BME280;34336;48.270;16.716;2023-04-07T00:51:59;109325.25;;;18.16;48.40
48555;BME280;34336;48.270;16.716;2023-04-07T00:54:26;109325.25;;;18.16;47.87
48555;BME280;34336;48.270;16.716;2023-04-07T00:56:52;109325.25;;;18.16;47.74
48555;BME280;34336;48.270;16.716;2023-04-07T00:59:20;109325.25;;;18.16;47.84
48555;BME280;34336;48.270;16.716;2023-04-07T01:01:49;109325.25;;;18.16;47.36
48555;BME280;34336;48.270;16.716;2023-04-07T01:07:03;109325.25;;;18.16;47.15
48555;BME280;34336;48.270;16.716;2023-04-07T01:09:38;109325.25;;;18.16;46.99
48555;BME280;34336;48.270;16.716;2023-04-07T01:12:09;109325.25;;;18.16;46.77
48555;BME280;34336;48.270;16.716;2023-04-07T01:14:45;109325.25;;;18.16;46.98
48555;BME280;34336;48.270;16.716;2023-04-07T01:17:36;109325.25;;;18.16;46.82
48555;BME280;34336;48.270;16.716;2023-04-07T01:20:04;109325.25;;;18.16;46.45
48555;BME280;34336;48.270;16.716;2023-04-07T01:22:39;109325.25;;;18.16;46.73
48555;BME280;34336;48.270;16.716;2023-04-07T01:27:59;109325.25;;;18.16;46.05
48555;BME280;34336;48.270;16.716;2023-04-07T01:30:34;109325.25;;;18.16;46.35
48555;BME280;34336;48.270;16.716;2023-04-07T01:33:03;109325.25;;;18.16;45.94
48555;BME280;34336;48.270;16.716;2023-04-07T01:35:32;109325.25;;;18.16;46.39
48555;BME280;34336;48.270;16.716;2023-04-07T01:38:00;109325.25;;;18.16;46.82
48555;BME280;34336;48.270;16.716;2023-04-07T01:40:27;109325.25;;;18.16;46.31
48555;BME280;34336;48.270;16.716;2023-04-07T01:42:55;109325.25;;;18.16;46.36
48555;BME280;34336;48.270;16.716;2023-04-07T01:45:22;109325.25;;;18.16;46.07
48555;BME280;34336;48.270;16.716;2023-04-07T01:47:49;109325.25;;;18.16;46.32
48555;BME280;34336;48.270;16.716;2023-04-07T01:50:17;109325.25;;;18.16;46.22
48555;BME280;34336;48.270;16.716;2023-04-07T01:52:45;109325.25;;;18.16;46.10
48555;BME280;34336;48.270;16.716;2023-04-07T01:55:12;109325.25;;;18.16;46.12
48555;BME280;34336;48.270;16.716;2023-04-07T01:57:48;109325.25;;;18.16;45.91
48555;BME280;34336;48.270;16.716;2023-04-07T02:00:17;109325.25;;;18.16;46.12
48555;BME280;34336;48.270;16.716;2023-04-07T02:02:48;109325.25;;;18.16;46.60
48555;BME280;34336;48.270;16.716;2023-04-07T02:05:18;109325.25;;;18.16;46.21
48555;BME280;34336;48.270;16.716;2023-04-07T02:07:57;109325.25;;;18.16;46.46
48555;BME280;34336;48.270;16.716;2023-04-07T02:10:25;109325.25;;;18.16;46.47
48555;BME280;34336;48.270;16.716;2023-04-07T02:12:56;109325.25;;;18.16;46.22
48555;BME280;34336;48.270;16.716;2023-04-07T02:15:24;109325.25;;;18.16;46.07
48555;BME280;34336;48.270;16.716;2023-04-07T02:17:52;109325.25;;;18.16;46.41
48555;BME280;34336;48.270;16.716;2023-04-07T02:20:20;109325.25;;;18.16;46.39
48555;BME280;34336;48.270;16.716;2023-04-07T02:22:47;109325.25;;;18.16;46.60
48555;BME280;34336;48.270;16.716;2023-04-07T02:25:20;109325.25;;;18.16;46.40
48555;BME280;34336;48.270;16.716;2023-04-07T02:27:47;109325.25;;;18.16;46.37
48555;BME280;34336;48.270;16.716;2023-04-07T02:30:14;109325.25;;;18.16;46.36
48555;BME280;34336;48.270;16.716;2023-04-07T02:32:43;109325.25;;;18.16;46.50
48555;BME280;34336;48.270;16.716;2023-04-07T02:35:09;109325.25;;;18.16;46.54
48555;BME280;34336;48.270;16.716;2023-04-07T02:37:37;109325.25;;;18.16;46.45
48555;BME280;34336;48.270;16.716;2023-04-07T02:40:04;109325.25;;;18.16;46.50
48555;BME280;34336;48.270;16.716;2023-04-07T02:42:31;109325.25;;;18.16;46.59
48555;BME280;34336;48.270;16.716;2023-04-07T02:44:58;109325.25;;;18.16;46.54
48555;BME280;34336;48.270;16.716;2023-04-07T02:47:24;109325.25;;;18.16;49.05
48555;BME280;34336;48.270;16.716;2023-04-07T02:49:51;109325.25;;;18.16;51.21
48555;BME280;34336;48.270;16.716;2023-04-07T02:52:17;109325.25;;;18.16;52.28
48555;BME280;34336;48.270;16.716;2023-04-07T02:54:44;109325.25;;;18.16;52.78
48555;BME280;34336;48.270;16.716;2023-04-07T02:57:11;109325.25;;;18.16;52.67
48555;BME280;34336;48.270;16.716;2023-04-07T02:59:39;109325.25;;;18.16;52.88
48555;BME280;34336;48.270;16.716;2023-04-07T03:02:08;109325.25;;;18.16;53.04
48555;BME280;34336;48.270;16.716;2023-04-07T03:04:36;109325.25;;;18.16;53.02
48555;BME280;34336;48.270;16.716;2023-04-07T03:07:02;109325.25;;;18.16;53.83
48555;BME280;34336;48.270;16.716;2023-04-07T03:09:31;109325.25;;;18.16;54.76
48555;BME280;34336;48.270;16.716;2023-04-07T03:11:57;109325.25;;;18.16;55.19
48555;BME280;34336;48.270;16.716;2023-04-07T03:14:29;109325.25;;;18.16;56.03
48555;BME280;34336;48.270;16.716;2023-04-07T03:16:55;109325.25;;;18.16;56.09
48555;BME280;34336;48.270;16.716;2023-04-07T03:19:23;109325.25;;;18.16;56.75
48555;BME280;34336;48.270;16.716;2023-04-07T03:21:51;109325.25;;;18.16;57.39
48555;BME280;34336;48.270;16.716;2023-04-07T03:24:17;109325.25;;;18.16;57.77
48555;BME280;34336;48.270;16.716;2023-04-07T03:26:45;109325.25;;;18.16;58.27
48555;BME280;34336;48.270;16.716;2023-04-07T03:29:21;109325.25;;;18.16;58.46
48555;BME280;34336;48.270;16.716;2023-04-07T03:31:48;109325.25;;;18.16;58.91
48555;BME280;34336;48.270;16.716;2023-04-07T03:34:18;109325.25;;;18.16;58.88
48555;BME280;34336;48.270;16.716;2023-04-07T03:36:44;109325.25;;;18.16;59.52
48555;BME280;34336;48.270;16.716;2023-04-07T03:39:11;109325.25;;;18.16;59.97
48555;BME280;34336;48.270;16.716;2023-04-07T03:41:38;109325.25;;;18.16;60.44
48555;BME280;34336;48.270;16.716;2023-04-07T03:44:05;109325.25;;;18.16;60.19
48555;BME280;34336;48.270;16.716;2023-04-07T03:46:34;109325.25;;;18.16;59.89
48555;BME280;34336;48.270;16.716;2023-04-07T03:49:01;109325.25;;;18.16;60.64
48555;BME280;34336;48.270;16.716;2023-04-07T03:51:30;109325.25;;;18.16;60.43
48555;BME280;34336;48.270;16.716;2023-04-07T03:53:57;109325.25;;;18.16;60.43
48555;BME280;34336;48.270;16.716;2023-04-07T03:56:34;109325.25;;;18.16;59.93
48555;BME280;34336;48.270;16.716;2023-04-07T03:59:03;109325.25;;;18.16;60.58
48555;BME280;34336;48.270;16.716;2023-04-07T04:01:34;109325.25;;;18.16;60.71
48555;BME280;34336;48.270;16.716;2023-04-07T04:04:13;109325.25;;;18.16;60.54
48555;BME280;34336;48.270;16.716;2023-04-07T04:06:41;109325.25;;;18.16;60.63
48555;BME280;34336;48.270;16.716;2023-04-07T04:09:19;109325.25;;;18.16;60.62
48555;BME280;34336;48.270;16.716;2023-04-07T04:11:47;109325.25;;;18.16;60.42
48555;BME280;34336;48.270;16.716;2023-04-07T04:14:14;109325.25;;;18.16;60.89
48555;BME280;34336;48.270;16.716;2023-04-07T04:16:47;109325.25;;;18.16;60.84
48555;BME280;34336;48.270;16.716;2023-04-07T04:19:25;109325.25;;;18.16;60.94
48555;BME280;34336;48.270;16.716;2023-04-07T04:21:53;109325.25;;;18.16;61.08
48555;BME280;34336;48.270;16.716;2023-04-07T04:24:20;109325.25;;;18.16;60.90
48555;BME280;34336;48.270;16.716;2023-04-07T04:26:47;109325.25;;;18.16;61.25
48555;BME280;34336;48.270;16.716;2023-04-07T04:29:14;109325.25;;;18.16;61.05
48555;BME280;34336;48.270;16.716;2023-04-07T04:31:42;109325.25;;;18.16;61.14
48555;BME280;34336;48.270;16.716;2023-04-07T04:34:09;109325.25;;;18.16;61.03
48555;BME280;34336;48.270;16.716;2023-04-07T04:36:37;109325.25;;;18.16;61.15
48555;BME280;34336;48.270;16.716;2023-04-07T04:39:04;109325.25;;;18.16;61.17
48555;BME280;34336;48.270;16.716;2023-04-07T04:41:33;109325.25;;;18.16;61.29
48555;BME280;34336;48.270;16.716;2023-04-07T04:44:00;109325.25;;;18.16;60.81
48555;BME280;34336;48.270;16.716;2023-04-07T04:46:28;109325.25;;;18.16;61.00
48555;BME280;34336;48.270;16.716;2023-04-07T04:48:54;109325.25;;;18.16;60.87
48555;BME280;34336;48.270;16.716;2023-04-07T04:51:22;109325.25;;;18.16;61.32
48555;BME280;34336;48.270;16.716;2023-04-07T04:53:54;109325.25;;;18.16;61.26
48555;BME280;34336;48.270;16.716;2023-04-07T04:56:23;109325.25;;;18.16;61.05
48555;BME280;34336;48.270;16.716;2023-04-07T04:58:52;109325.25;;;18.16;60.70
48555;BME280;34336;48.270;16.716;2023-04-07T05:01:37;109325.25;;;18.16;60.40
48555;BME280;34336;48.270;16.716;2023-04-07T05:04:11;109325.25;;;18.16;60.38
48555;BME280;34336;48.270;16.716;2023-04-07T05:06:44;109325.25;;;18.16;60.55
48555;BME280;34336;48.270;16.716;2023-04-07T05:09:13;109325.25;;;18.16;60.20
48555;BME280;34336;48.270;16.716;2023-04-07T05:11:43;109325.25;;;18.16;59.81
48555;BME280;34336;48.270;16.716;2023-04-07T05:14:10;109325.25;;;18.16;59.36
48555;BME280;34336;48.270;16.716;2023-04-07T05:16:41;109325.25;;;18.16;59.00
48555;BME280;34336;48.270;16.716;2023-04-07T05:19:14;109325.25;;;18.16;59.73
48555;BME280;34336;48.270;16.716;2023-04-07T05:21:40;109325.25;;;18.16;59.47
48555;BME280;34336;48.270;16.716;2023-04-07T05:24:08;109325.25;;;18.16;59.44
48555;BME280;34336;48.270;16.716;2023-04-07T05:26:35;109325.25;;;18.16;58.89
48555;BME280;34336;48.270;16.716;2023-04-07T05:29:04;109325.25;;;18.16;58.61
48555;BME280;34336;48.270;16.716;2023-04-07T05:31:30;109325.25;;;18.16;58.77
48555;BME280;34336;48.270;16.716;2023-04-07T05:33:59;109325.25;;;18.16;58.73
48555;BME280;34336;48.270;16.716;2023-04-07T05:36:32;109325.25;;;18.16;58.67
48555;BME280;34336;48.270;16.716;2023-04-07T05:38:58;109325.25;;;18.16;58.66
48555;BME280;34336;48.270;16.716;2023-04-07T05:41:26;109325.25;;;18.16;58.04
48555;BME280;34336;48.270;16.716;2023-04-07T05:43:53;109325.25;;;18.16;58.09
48555;BME280;34336;48.270;16.716;2023-04-07T05:46:20;109325.25;;;18.16;57.61
48555;BME280;34336;48.270;16.716;2023-04-07T05:48:52;109325.25;;;18.16;57.65
48555;BME280;34336;48.270;16.716;2023-04-07T05:51:19;109325.25;;;18.16;57.60
48555;BME280;34336;48.270;16.716;2023-04-07T05:53:48;109325.25;;;18.16;57.77
48555;BME280;34336;48.270;16.716;2023-04-07T05:56:18;109325.25;;;18.16;57.88
48555;BME280;34336;48.270;16.716;2023-04-07T05:58:46;109325.25;;;18.16;57.18
48555;BME280;34336;48.270;16.716;2023-04-07T06:01:13;109325.25;;;18.16;56.67
48555;BME280;34336;48.270;16.716;2023-04-07T06:03:41;109325.25;;;18.16;56.71
48555;BME280;34336;48.270;16.716;2023-04-07T06:06:27;109325.25;;;18.16;56.97
48555;BME280;34336;48.270;16.716;2023-04-07T06:08:54;109325.25;;;18.16;56.39
48555;BME280;34336;48.270;16.716;2023-04-07T06:11:22;109325.25;;;18.16;56.46
48555;BME280;34336;48.270;16.716;2023-04-07T06:13:49;109325.25;;;18.16;56.40
48555;BME280;34336;48.270;16.716;2023-04-07T06:16:16;109325.25;;;18.16;56.50
48555;BME280;34336;48.270;16.716;2023-04-07T06:18:45;109325.25;;;18.16;56.87
48555;BME280;34336;48.270;16.716;2023-04-07T06:21:11;109325.25;;;18.16;56.80
48555;BME280;34336;48.270;16.716;2023-04-07T06:23:38;109325.25;;;18.16;57.01
48555;BME280;34336;48.270;16.716;2023-04-07T06:26:05;109325.25;;;18.16;56.74
48555;BME280;34336;48.270;16.716;2023-04-07T06:28:32;109325.25;;;18.16;56.89
48555;BME280;34336;48.270;16.716;2023-04-07T06:30:59;109325.25;;;18.16;58.16
48555;BME280;34336;48.270;16.716;2023-04-07T06:33:26;109325.25;;;18.16;57.34
48555;BME280;34336;48.270;16.716;2023-04-07T06:35:55;109325.25;;;18.16;57.13
48555;BME280;34336;48.270;16.716;2023-04-07T06:38:21;109325.25;;;18.16;57.56
48555;BME280;34336;48.270;16.716;2023-04-07T06:40:48;109325.25;;;18.16;57.20
48555;BME280;34336;48.270;16.716;2023-04-07T06:43:15;109325.25;;;18.16;57.09
48555;BME280;34336;48.270;16.716;2023-04-07T06:45:49;109325.25;;;18.16;56.82
48555;BME280;34336;48.270;16.716;2023-04-07T06:48:15;109325.25;;;18.16;56.76
48555;BME280;34336;48.270;16.716;2023-04-07T06:50:45;109325.25;;;18.16;56.45
48555;BME280;34336;48.270;16.716;2023-04-07T06:53:12;109325.25;;;18.16;56.51
48555;BME280;34336;48.270;16.716;2023-04-07T06:55:39;109325.25;;;18.16;55.12
48555;BME280;34336;48.270;16.716;2023-04-07T06:58:06;109325.25;;;18.16;54.04
48555;BME280;34336;48.270;16.716;2023-04-07T07:00:32;109325.25;;;18.16;53.81
48555;BME280;34336;48.270;16.716;2023-04-07T07:02:59;109325.25;;;18.16;52.76
48555;BME280;34336;48.270;16.716;2023-04-07T07:05:26;109325.25;;;18.16;52.23
48555;BME280;34336;48.270;16.716;2023-04-07T07:07:53;109325.25;;;18.16;51.74
48555;BME280;34336;48.270;16.716;2023-04-07T07:10:19;109325.25;;;18.16;50.72
48555;BME280;34336;48.270;16.716;2023-04-07T07:12:48;109325.25;;;18.16;50.49
48555;BME280;34336;48.270;16.716;2023-04-07T07:15:15;109325.25;;;18.16;50.44
48555;BME280;34336;48.270;16.716;2023-04-07T07:17:41;109325.25;;;18.16;49.94
48555;BME280;34336;48.270;16.716;2023-04-07T07:20:08;109325.25;;;18.16;49.44
48555;BME280;34336;48.270;16.716;2023-04-07T07:22:35;109325.25;;;18.16;48.53
48555;BME280;34336;48.270;16.716;2023-04-07T07:25:02;109325.25;;;18.16;49.14
48555;BME280;34336;48.270;16.716;2023-04-07T07:27:29;109325.25;;;18.16;50.05
48555;BME280;34336;48.270;16.716;2023-04-07T07:29:55;109325.25;;;18.16;49.93
48555;BME280;34336;48.270;16.716;2023-04-07T07:32:22;109325.25;;;18.16;49.77
48555;BME280;34336;48.270;16.716;2023-04-07T07:34:49;109325.25;;;18.16;49.07
48555;BME280;34336;48.270;16.716;2023-04-07T07:37:15;109325.25;;;18.16;49.83
48555;BME280;34336;48.270;16.716;2023-04-07T07:39:42;109325.25;;;18.16;48.40
48555;BME280;34336;48.270;16.716;2023-04-07T07:42:09;109325.25;;;18.16;48.04
48555;BME280;34336;48.270;16.716;2023-04-07T07:44:36;109325.25;;;18.16;46.16
48555;BME280;34336;48.270;16.716;2023-04-07T07:47:02;109325.25;;;18.16;46.14
48555;BME280;34336;48.270;16.716;2023-04-07T07:49:29;109325.25;;;18.16;46.72
48555;BME280;34336;48.270;16.716;2023-04-07T07:51:56;109325.25;;;18.16;47.46
48555;BME280;34336;48.270;16.716;2023-04-07T07:54:22;109325.25;;;18.16;47.25
48555;BME280;34336;48.270;16.716;2023-04-07T07:56:49;109325.25;;;18.16;47.20
48555;BME280;34336;48.270;16.716;2023-04-07T07:59:16;109325.25;;;18.16;48.43
48555;BME280;34336;48.270;16.716;2023-04-07T08:01:43;109325.25;;;18.16;47.26
48555;BME280;34336;48.270;16.716;2023-04-07T08:04:10;109325.25;;;18.16;47.29
48555;BME280;34336;48.270;16.716;2023-04-07T08:06:37;109325.25;;;18.16;47.89
48555;BME280;34336;48.270;16.716;2023-04-07T08:09:03;109325.25;;;18.16;47.65
48555;BME280;34336;48.270;16.716;2023-04-07T08:11:31;109325.25;;;18.16;47.92
48555;BME280;34336;48.270;16.716;2023-04-07T08:13:58;109325.25;;;18.16;47.14
48555;BME280;34336;48.270;16.716;2023-04-07T08:16:24;109325.25;;;18.16;46.62
48555;BME280;34336;48.270;16.716;2023-04-07T08:18:52;109325.25;;;18.16;47.25
48555;BME280;34336;48.270;16.716;2023-04-07T08:21:19;109325.25;;;18.16;46.63
48555;BME280;34336;48.270;16.716;2023-04-07T08:23:46;109325.25;;;18.16;46.11
48555;BME280;34336;48.270;16.716;2023-04-07T08:26:13;109325.25;;;18.16;46.76
48555;BME280;34336;48.270;16.716;2023-04-07T08:28:40;109325.25;;;18.16;45.73
48555;BME280;34336;48.270;16.716;2023-04-07T08:31:06;109325.25;;;18.16;44.90
48555;BME280;34336;48.270;16.716;2023-04-07T08:33:33;109325.25;;;18.16;45.34
48555;BME280;34336;48.270;16.716;2023-04-07T08:36:00;109325.25;;;18.16;45.78
48555;BME280;34336;48.270;16.716;2023-04-07T08:38:27;109325.25;;;18.16;45.85
48555;BME280;34336;48.270;16.716;2023-04-07T08:40:55;109325.25;;;18.16;44.79
48555;BME280;34336;48.270;16.716;2023-04-07T08:43:24;109325.25;;;18.16;45.23
48555;BME280;34336;48.270;16.716;2023-04-07T08:45:52;109325.25;;;18.16;45.60
48555;BME280;34336;48.270;16.716;2023-04-07T08:48:22;109325.25;;;18.16;46.23
48555;BME280;34336;48.270;16.716;2023-04-07T08:50:48;109325.25;;;18.16;46.93
48555;BME280;34336;48.270;16.716;2023-04-07T08:53:22;109325.25;;;18.16;48.53
48555;BME280;34336;48.270;16.716;2023-04-07T08:55:49;109325.25;;;18.16;48.77
48555;BME280;34336;48.270;16.716;2023-04-07T08:58:15;109325.25;;;18.16;47.55
48555;BME280;34336;48.270;16.716;2023-04-07T09:00:43;109325.25;;;18.16;48.58
48555;BME280;34336;48.270;16.716;2023-04-07T09:03:12;109325.25;;;18.16;48.23
48555;BME280;34336;48.270;16.716;2023-04-07T09:05:39;109325.25;;;18.16;47.98
48555;BME280;34336;48.270;16.716;2023-04-07T09:08:06;109325.25;;;18.16;49.53
48555;BME280;34336;48.270;16.716;2023-04-07T09:10:32;109325.25;;;18.16;47.90
48555;BME280;34336;48.270;16.716;2023-04-07T09:12:59;109325.25;;;18.16;48.25
48555;BME280;34336;48.270;16.716;2023-04-07T09:15:29;109325.25;;;18.16;48.13
48555;BME280;34336;48.270;16.716;2023-04-07T09:17:56;109325.25;;;18.16;48.16
48555;BME280;34336;48.270;16.716;2023-04-07T09:20:23;109325.25;;;18.16;48.12
48555;BME280;34336;48.270;16.716;2023-04-07T09:22:50;109325.25;;;18.16;47.90
48555;BME280;34336;48.270;16.716;2023-04-07T09:25:18;109325.25;;;18.16;48.51
48555;BME280;34336;48.270;16.716;2023-04-07T09:27:55;109325.25;;;18.16;49.05
48555;BME280;34336;48.270;16.716;2023-04-07T09:30:22;109325.25;;;18.16;49.12
48555;BME280;34336;48.270;16.716;2023-04-07T09:32:49;109325.25;;;18.16;48.40
48555;BME280;34336;48.270;16.716;2023-04-07T09:35:16;109325.25;;;18.16;48.98
48555;BME280;34336;48.270;16.716;2023-04-07T09:37:43;109325.25;;;18.16;49.29
48555;BME280;34336;48.270;16.716;2023-04-07T09:40:10;109325.25;;;18.16;48.83
48555;BME280;34336;48.270;16.716;2023-04-07T09:42:46;109325.25;;;18.16;48.58
48555;BME280;34336;48.270;16.716;2023-04-07T09:45:22;109325.25;;;18.16;49.46
48555;BME280;34336;48.270;16.716;2023-04-07T09:48:03;109325.25;;;18.16;49.39
48555;BME280;34336;48.270;16.716;2023-04-07T09:50:39;109325.25;;;18.16;50.38
48555;BME280;34336;48.270;16.716;2023-04-07T09:53:07;109325.25;;;18.16;50.08
48555;BME280;34336;48.270;16.716;2023-04-07T09:55:34;109325.25;;;18.16;49.06
48555;BME280;34336;48.270;16.716;2023-04-07T09:58:00;109325.25;;;18.16;49.69
48555;BME280;34336;48.270;16.716;2023-04-07T10:00:27;109325.25;;;18.16;48.93
48555;BME280;34336;48.270;16.716;2023-04-07T10:02:54;109325.25;;;18.16;48.59
48555;BME280;34336;48.270;16.716;2023-04-07T10:05:22;109325.25;;;18.16;48.85
48555;BME280;34336;48.270;16.716;2023-04-07T10:07:49;109325.25;;;18.16;47.78
48555;BME280;34336;48.270;16.716;2023-04-07T10:10:15;109325.25;;;18.16;47.87
48555;BME280;34336;48.270;16.716;2023-04-07T10:12:42;109325.25;;;18.16;48.49
48555;BME280;34336;48.270;16.716;2023-04-07T10:15:12;109325.25;;;18.16;48.95
48555;BME280;34336;48.270;16.716;2023-04-07T10:17:45;109325.25;;;18.16;47.57
48555;BME280;34336;48.270;16.716;2023-04-07T10:20:18;109325.25;;;18.16;48.02
48555;BME280;34336;48.270;16.716;2023-04-07T10:22:47;109325.25;;;18.16;48.88
48555;BME280;34336;48.270;16.716;2023-04-07T10:25:16;109325.25;;;18.16;47.47
48555;BME280;34336;48.270;16.716;2023-04-07T10:27:50;109325.25;;;18.16;49.22
48555;BME280;34336;48.270;16.716;2023-04-07T10:30:25;109325.25;;;18.16;48.92
48555;BME280;34336;48.270;16.716;2023-04-07T10:32:53;109325.25;;;18.16;48.24
48555;BME280;34336;48.270;16.716;2023-04-07T10:35:20;109325.25;;;18.16;49.49
48555;BME280;34336;48.270;16.716;2023-04-07T10:40:33;109325.25;;;18.16;50.85
48555;BME280;34336;48.270;16.716;2023-04-07T10:43:00;109325.25;;;18.16;51.61
48555;BME280;34336;48.270;16.716;2023-04-07T10:48:13;109325.25;;;18.16;51.25
48555;BME280;34336;48.270;16.716;2023-04-07T10:50:40;109325.25;;;18.16;51.30
48555;BME280;34336;48.270;16.716;2023-04-07T10:53:08;109325.25;;;18.16;50.96
48555;BME280;34336;48.270;16.716;2023-04-07T10:55:42;109325.25;;;18.16;50.92
48555;BME280;34336;48.270;16.716;2023-04-07T11:00:39;109325.25;;;18.16;51.85
48555;BME280;34336;48.270;16.716;2023-04-07T11:03:12;109325.25;;;18.16;50.41
48555;BME280;34336;48.270;16.716;2023-04-07T11:05:39;109325.25;;;18.16;50.26
48555;BME280;34336;48.270;16.716;2023-04-07T11:08:06;109325.25;;;18.16;50.47
48555;BME280;34336;48.270;16.716;2023-04-07T11:10:34;109325.25;;;18.16;51.33
48555;BME280;34336;48.270;16.716;2023-04-07T11:13:02;109325.25;;;18.16;51.44
48555;BME280;34336;48.270;16.716;2023-04-07T11:15:29;109325.25;;;18.16;52.20
48555;BME280;34336;48.270;16.716;2023-04-07T11:18:05;109325.25;;;18.16;50.63
48555;BME280;34336;48.270;16.716;2023-04-07T11:20:42;109325.25;;;18.16;50.91
48555;BME280;34336;48.270;16.716;2023-04-07T11:23:12;109325.25;;;18.16;50.51
48555;BME280;34336;48.270;16.716;2023-04-07T11:25:40;109325.25;;;18.16;51.09
48555;BME280;34336;48.270;16.716;2023-04-07T11:28:08;109325.25;;;18.16;49.86
48555;BME280;34336;48.270;16.716;2023-04-07T11:30:35;109325.25;;;18.16;50.50
48555;BME280;34336;48.270;16.716;2023-04-07T11:33:01;109325.25;;;18.16;50.92
48555;BME280;34336;48.270;16.716;2023-04-07T11:35:28;109325.25;;;18.16;51.96
48555;BME280;34336;48.270;16.716;2023-04-07T11:37:58;109325.25;;;18.16;51.35
48555;BME280;34336;48.270;16.716;2023-04-07T11:40:35;109325.25;;;18.16;52.31
48555;BME280;34336;48.270;16.716;2023-04-07T11:43:14;109325.25;;;18.16;51.75
48555;BME280;34336;48.270;16.716;2023-04-07T11:45:41;109325.25;;;18.16;51.69
48555;BME280;34336;48.270;16.716;2023-04-07T11:50:54;109325.25;;;18.16;50.25
48555;BME280;34336;48.270;16.716;2023-04-07T11:53:24;109325.25;;;18.16;50.87
48555;BME280;34336;48.270;16.716;2023-04-07T11:56:25;109325.25;;;18.16;50.85
48555;BME280;34336;48.270;16.716;2023-04-07T12:01:14;109325.25;;;18.16;50.77
48555;BME280;34336;48.270;16.716;2023-04-07T12:06:37;109325.25;;;18.16;51.13
48555;BME280;34336;48.270;16.716;2023-04-07T12:09:28;109325.25;;;18.16;51.49
48555;BME280;34336;48.270;16.716;2023-04-07T12:11:55;109325.25;;;18.16;52.05
48555;BME280;34336;48.270;16.716;2023-04-07T12:14:23;109325.25;;;18.16;53.76
48555;BME280;34336;48.270;16.716;2023-04-07T12:16:49;109325.25;;;18.16;56.22
48555;BME280;34336;48.270;16.716;2023-04-07T12:19:16;109325.25;;;18.16;57.80
48555;BME280;34336;48.270;16.716;2023-04-07T12:21:43;109325.25;;;18.16;57.47
48555;BME280;34336;48.270;16.716;2023-04-07T12:24:10;109325.25;;;18.16;57.57
48555;BME280;34336;48.270;16.716;2023-04-07T12:26:37;109325.25;;;18.16;57.33
48555;BME280;34336;48.270;16.716;2023-04-07T12:29:03;109325.25;;;18.16;56.45
48555;BME280;34336;48.270;16.716;2023-04-07T12:31:31;109325.25;;;18.16;55.62
48555;BME280;34336;48.270;16.716;2023-04-07T12:33:58;109325.25;;;18.16;56.43
48555;BME280;34336;48.270;16.716;2023-04-07T12:36:25;109325.25;;;18.16;56.88
48555;BME280;34336;48.270;16.716;2023-04-07T12:38:53;109325.25;;;18.16;58.32
48555;BME280;34336;48.270;16.716;2023-04-07T12:41:19;109325.25;;;18.16;57.54
48555;BME280;34336;48.270;16.716;2023-04-07T12:43:46;109325.25;;;18.16;57.93
48555;BME280;34336;48.270;16.716;2023-04-07T12:46:14;109325.25;;;18.16;56.84
48555;BME280;34336;48.270;16.716;2023-04-07T12:48:41;109325.25;;;18.16;57.57
48555;BME280;34336;48.270;16.716;2023-04-07T12:51:07;109325.25;;;18.16;56.81
48555;BME280;34336;48.270;16.716;2023-04-07T12:53:34;109325.25;;;18.16;57.39
48555;BME280;34336;48.270;16.716;2023-04-07T12:56:00;109325.25;;;18.16;57.22
48555;BME280;34336;48.270;16.716;2023-04-07T12:58:27;109325.25;;;18.16;55.74
48555;BME280;34336;48.270;16.716;2023-04-07T13:00:55;109325.25;;;18.16;55.86
48555;BME280;34336;48.270;16.716;2023-04-07T13:03:22;109325.25;;;18.16;55.45
48555;BME280;34336;48.270;16.716;2023-04-07T13:05:49;109325.25;;;18.16;55.45
48555;BME280;34336;48.270;16.716;2023-04-07T13:08:15;109325.25;;;18.16;56.06